createdAt,value
2019-02-18T00:01:00.465Z,101686.77
2019-02-18T00:06:12.201Z,101683.79
2019-02-18T00:11:23.086Z,101686.08
2019-02-18T00:16:30.711Z,101688.41
2019-02-18T00:21:41.539Z,101690.23
2019-02-18T00:26:59.331Z,101684.23
2019-02-18T00:32:07.361Z,101692.53
2019-02-18T00:37:24.138Z,101694.79
2019-02-18T00:42:27.365Z,101692.70
2019-02-18T00:47:35.368Z,101687.99
2019-02-18T00:52:52.425Z,101685.45
2019-02-18T00:58:05.123Z,101687.26
2019-02-18T01:03:13.685Z,101687.31
2019-02-18T01:08:27.517Z,101686.06
2019-02-18T01:13:42.082Z,101694.28
2019-02-18T01:18:59.950Z,101700.44
2019-02-18T01:24:11.790Z,101698.78
2019-02-18T01:29:22.883Z,101695.78
2019-02-18T01:34:35.780Z,101698.00
2019-02-18T01:39:46.697Z,101689.38
2019-02-18T01:44:57.542Z,101697.23
2019-02-18T01:50:08.613Z,101693.86
2019-02-18T01:55:20.303Z,101694.30
2019-02-18T02:00:30.345Z,101691.30
2019-02-18T02:05:41.109Z,101693.53
2019-02-18T02:10:52.019Z,101690.52
2019-02-18T02:16:03.313Z,101689.62
2019-02-18T02:21:11.946Z,101684.87
2019-02-18T02:26:27.601Z,101687.09
2019-02-18T02:31:37.645Z,101679.77
2019-02-18T02:36:52.302Z,101683.30
2019-02-18T02:42:03.351Z,101679.84
2019-02-18T02:47:14.651Z,101671.66
2019-02-18T02:52:29.587Z,101663.45
2019-02-18T02:57:45.290Z,101666.55
2019-02-18T03:02:57.131Z,101658.75
2019-02-18T03:08:19.971Z,101654.35
2019-02-18T03:13:17.956Z,101647.03
2019-02-18T03:18:28.773Z,101643.16
2019-02-18T03:23:39.683Z,101650.13
2019-02-18T03:29:19.820Z,101650.16
2019-02-18T03:34:37.912Z,101642.39
2019-02-18T03:39:49.961Z,101653.69
2019-02-18T03:45:07.216Z,101652.42
2019-02-18T03:50:20.742Z,101652.46
2019-02-18T03:55:28.461Z,101656.65
2019-02-18T04:00:42.074Z,101656.36
2019-02-18T04:05:55.141Z,101661.20
2019-02-18T04:11:07.832Z,101661.17
2019-02-18T04:16:20.477Z,101659.04
2019-02-18T04:21:30.162Z,101660.77
2019-02-18T04:26:44.391Z,101662.08
2019-02-18T04:31:52.678Z,101648.64
2019-02-18T04:37:02.125Z,101652.14
2019-02-18T04:42:16.950Z,101653.03
2019-02-18T04:47:33.923Z,101658.23
2019-02-18T04:52:50.161Z,101657.80
2019-02-18T04:58:02.419Z,101653.03
2019-02-18T05:03:13.142Z,101644.81
2019-02-18T05:08:20.059Z,101644.41
2019-02-18T05:13:31.414Z,101640.92
2019-02-18T05:18:39.848Z,101637.48
2019-02-18T05:23:50.243Z,101644.81
2019-02-18T05:29:03.921Z,101640.52
2019-02-18T05:34:16.552Z,101639.63
2019-02-18T05:39:25.613Z,101639.66
2019-02-18T05:44:37.389Z,101629.70
2019-02-18T05:49:47.537Z,101626.69
2019-02-18T05:54:57.894Z,101624.09
2019-02-18T06:00:07.548Z,101627.13
2019-02-18T06:05:20.139Z,101621.95
2019-02-18T06:10:30.601Z,101618.95
2019-02-18T06:15:45.803Z,101618.48
2019-02-18T06:21:01.125Z,101618.95
2019-02-18T06:26:10.131Z,101621.52
2019-02-18T06:31:21.777Z,101623.25
2019-02-18T06:36:29.929Z,101621.95
2019-02-18T06:41:41.133Z,101626.29
2019-02-18T06:46:58.827Z,101615.46
2019-02-18T06:52:06.905Z,101612.00
2019-02-18T06:57:46.348Z,101605.97
2019-02-18T07:03:19.642Z,101616.32
2019-02-18T07:08:44.747Z,101612.44
2019-02-18T07:13:55.072Z,101611.57
2019-02-18T07:19:09.486Z,101609.42
2019-02-18T07:24:21.268Z,101618.50
2019-02-18T07:29:31.303Z,101618.92
2019-02-18T07:34:44.871Z,101609.84
2019-02-18T07:40:01.508Z,101605.52
2019-02-18T07:45:05.229Z,101604.62
2019-02-18T07:50:20.576Z,101610.65
2019-02-18T07:55:26.183Z,101616.71
2019-02-18T08:00:40.112Z,101624.03
2019-02-18T08:05:53.445Z,101614.93
2019-02-18T08:11:10.791Z,101610.14
2019-02-18T08:16:22.629Z,101613.14
2019-02-18T08:21:31.711Z,101607.03
2019-02-18T08:26:45.386Z,101615.58
2019-02-18T08:31:57.451Z,101608.52
2019-02-18T08:37:10.214Z,101607.41
2019-02-18T08:42:17.955Z,101607.54
2019-02-18T08:47:31.567Z,101598.98
2019-02-18T08:52:44.581Z,101589.85
2019-02-18T08:57:53.911Z,101586.44
2019-02-18T09:03:06.688Z,101590.28
2019-02-18T09:08:17.485Z,101583.70
2019-02-18T09:13:29.938Z,101575.37
2019-02-18T09:18:38.021Z,101570.44
2019-02-18T09:23:50.508Z,101573.48
2019-02-18T09:28:59.012Z,101582.95
2019-02-18T09:34:08.974Z,101570.27
2019-02-18T09:39:30.521Z,101576.22
2019-02-18T09:44:36.804Z,101569.45
2019-02-18T09:49:46.075Z,101579.94
2019-02-18T09:54:54.150Z,101565.05
2019-02-18T10:00:05.733Z,101560.77
2019-02-18T10:05:13.326Z,101559.52
2019-02-18T10:10:22.308Z,101556.41
2019-02-18T10:15:37.754Z,101549.33
2019-02-18T10:20:48.458Z,101539.67
2019-02-18T10:25:59.206Z,101545.95
2019-02-18T10:31:10.046Z,101545.08
2019-02-18T10:36:18.073Z,101539.92
2019-02-18T10:41:26.406Z,101535.02
2019-02-18T10:46:40.594Z,101524.00
2019-02-18T10:51:45.500Z,101516.95
2019-02-18T10:56:53.438Z,101517.42
2019-02-18T11:02:02.589Z,101508.70
2019-02-18T11:07:20.581Z,101501.23
2019-02-18T11:12:29.562Z,101498.53
2019-02-18T11:17:40.423Z,101493.69
2019-02-18T11:22:50.625Z,101491.25
2019-02-18T11:28:04.357Z,101492.42
2019-02-18T11:33:15.942Z,101486.19
2019-02-18T11:38:26.148Z,101479.06
2019-02-18T11:43:34.655Z,101468.59
2019-02-18T11:48:47.213Z,101464.77
2019-02-18T11:53:59.947Z,101466.22
2019-02-18T11:59:12.484Z,101463.31
2019-02-18T12:04:25.957Z,101447.66
2019-02-18T12:09:39.463Z,101447.73
2019-02-18T12:14:48.779Z,101442.08
2019-02-18T12:19:59.485Z,101441.47
2019-02-18T12:25:07.560Z,101432.00
2019-02-18T12:30:38.694Z,101423.33
2019-02-18T12:35:51.306Z,101418.16
2019-02-18T12:41:04.373Z,101406.92
2019-02-18T12:46:15.857Z,101410.08
2019-02-18T12:51:26.256Z,101396.37
2019-02-18T12:56:38.920Z,101388.66
2019-02-18T13:01:53.458Z,101381.84
2019-02-18T13:07:05.069Z,101374.07
2019-02-18T13:12:14.032Z,101362.75
2019-02-18T13:17:29.467Z,101357.31
2019-02-18T13:22:43.543Z,101343.81
2019-02-18T13:27:57.056Z,101338.97
2019-02-18T13:33:10.119Z,101331.86
2019-02-18T13:38:22.801Z,101321.63
2019-02-18T13:43:38.123Z,101307.76
2019-02-18T13:48:51.532Z,101306.44
2019-02-18T13:54:20.527Z,101297.48
2019-02-18T13:59:31.334Z,101295.67
2019-02-18T14:04:44.372Z,101295.67
2019-02-18T14:09:53.760Z,101292.61
2019-02-18T14:15:04.851Z,101275.00
2019-02-18T14:20:18.479Z,101271.92
2019-02-18T14:25:27.101Z,101272.16
2019-02-18T14:30:39.983Z,101265.36
2019-02-18T14:35:47.841Z,101262.08
2019-02-18T14:40:58.823Z,101263.70
2019-02-18T14:46:07.439Z,101258.06
2019-02-18T14:51:56.136Z,101253.19
2019-02-18T14:57:06.662Z,101259.86
2019-02-18T15:02:18.302Z,101260.74
2019-02-18T15:07:28.532Z,101261.81
2019-02-18T15:12:38.020Z,101255.69
2019-02-18T15:17:47.948Z,101248.41
2019-02-18T15:22:59.591Z,101240.28
2019-02-18T15:28:11.466Z,101236.23
2019-02-18T15:33:21.436Z,101232.45
2019-02-18T15:38:33.186Z,101232.91
2019-02-18T15:43:41.675Z,101228.77
2019-02-18T15:48:52.492Z,101221.64
2019-02-18T15:54:02.893Z,101216.42
2019-02-18T15:59:15.469Z,101215.06
2019-02-18T16:04:29.137Z,101217.97
2019-02-18T16:09:40.480Z,101218.62
2019-02-18T16:14:53.038Z,101217.20
2019-02-18T16:20:02.669Z,101215.52
2019-02-18T16:25:14.161Z,101211.52
2019-02-18T16:30:25.031Z,101211.25
2019-02-18T16:35:35.764Z,101212.33
2019-02-18T16:40:47.071Z,101218.48
2019-02-18T16:45:55.782Z,101216.37
2019-02-18T16:51:04.138Z,101223.25
2019-02-18T16:56:17.779Z,101222.75
2019-02-18T17:01:32.170Z,101228.38
2019-02-18T17:06:43.206Z,101223.33
2019-02-18T17:11:51.109Z,101231.73
2019-02-18T17:17:00.472Z,101228.48
2019-02-18T17:22:11.277Z,101225.86
2019-02-18T17:27:22.087Z,101228.05
2019-02-18T17:32:35.590Z,101225.06
2019-02-18T17:37:46.261Z,101236.54
2019-02-18T17:42:54.711Z,101237.34
2019-02-18T17:48:01.465Z,101239.53
2019-02-18T17:53:09.511Z,101245.05
2019-02-18T17:58:21.253Z,101230.61
2019-02-18T18:03:33.002Z,101234.56
2019-02-18T18:08:42.890Z,101236.58
2019-02-18T18:13:52.752Z,101238.23
2019-02-18T18:19:09.069Z,101236.34
2019-02-18T18:24:11.663Z,101236.70
2019-02-18T18:29:22.888Z,101237.95
2019-02-18T18:34:36.394Z,101240.95
2019-02-18T18:39:49.131Z,101245.91
2019-02-18T18:44:59.263Z,101233.70
2019-02-18T18:50:09.204Z,101223.44
2019-02-18T18:55:22.693Z,101221.86
2019-02-18T19:00:29.728Z,101224.11
2019-02-18T19:05:44.108Z,101223.20
2019-02-18T19:10:51.912Z,101231.30
2019-02-18T19:16:00.150Z,101233.30
2019-02-18T19:21:13.719Z,101232.33
2019-02-18T19:26:23.305Z,101225.92
2019-02-18T19:31:33.292Z,101219.35
2019-02-18T19:36:47.122Z,101224.78
2019-02-18T19:41:56.311Z,101231.58
2019-02-18T19:47:07.111Z,101238.12
2019-02-18T19:52:17.088Z,101237.25
2019-02-18T19:57:25.419Z,101242.56
2019-02-18T20:02:40.103Z,101244.77
2019-02-18T20:07:51.145Z,101246.77
2019-02-18T20:13:01.482Z,101243.55
2019-02-18T20:18:13.880Z,101243.97
2019-02-18T20:23:29.477Z,101235.54
2019-02-18T20:28:38.230Z,101229.58
2019-02-18T20:34:46.983Z,101239.67
2019-02-18T20:39:59.328Z,101244.31
2019-02-18T20:45:08.231Z,101251.25
2019-02-18T20:50:19.110Z,101253.22
2019-02-18T20:55:31.746Z,101258.60
2019-02-18T21:00:44.583Z,101252.86
2019-02-18T21:05:55.300Z,101253.74
2019-02-18T21:11:05.083Z,101250.50
2019-02-18T21:16:20.496Z,101250.48
2019-02-18T21:21:31.060Z,101236.08
2019-02-18T21:26:41.122Z,101249.59
2019-02-18T21:31:54.807Z,101248.17
2019-02-18T21:37:03.987Z,101242.70
2019-02-18T21:42:11.565Z,101252.00
2019-02-18T21:47:25.091Z,101251.30
2019-02-18T21:52:34.205Z,101241.07
2019-02-18T21:57:46.823Z,101240.88
2019-02-18T22:02:57.779Z,101245.96
2019-02-18T22:08:06.975Z,101234.55
2019-02-18T22:13:21.317Z,101242.36
2019-02-18T22:18:33.989Z,101242.69
2019-02-18T22:24:07.693Z,101241.87
2019-02-18T22:29:23.087Z,101249.16
2019-02-18T22:34:37.502Z,101233.25
2019-02-18T22:39:48.725Z,101238.77
2019-02-18T22:44:59.561Z,101240.15
2019-02-18T22:50:11.431Z,101239.94
2019-02-18T22:55:21.257Z,101241.03
2019-02-18T23:00:56.746Z,101252.92
2019-02-18T23:06:11.144Z,101250.02
2019-02-18T23:11:17.975Z,101254.83
2019-02-18T23:16:28.658Z,101255.77
2019-02-18T23:21:37.698Z,101256.94
2019-02-18T23:26:46.588Z,101265.02
2019-02-18T23:31:54.918Z,101277.69
2019-02-18T23:37:08.436Z,101288.33
2019-02-18T23:42:21.922Z,101292.26
2019-02-18T23:47:34.700Z,101295.34
2019-02-18T23:52:43.615Z,101299.30
2019-02-18T23:57:53.916Z,101303.33
